sensor_id;sensor_type;location;lat;lon;timestamp;noise_LAeq;noise_LA_min;noise_LA_max;noise_LA01;noise_LA95
67900;Laerm;54700;51.796;10.956;2023-12-20T00:00:59;33.97;29.68;43.17;;
67900;Laerm;54700;51.796;10.956;2023-12-20T00:03:26;51.95;31.20;68.44;;
67900;Laerm;54700;51.796;10.956;2023-12-20T00:05:53;33.46;29.79;51.01;;
67900;Laerm;54700;51.796;10.956;2023-12-20T00:08:19;47.68;29.96;65.50;;
67900;Laerm;54700;51.796;10.956;2023-12-20T00:10:47;39.66;32.91;53.38;;
67900;Laerm;54700;51.796;10.956;2023-12-20T00:13:14;36.75;30.88;51.01;;
67900;Laerm;54700;51.796;10.956;2023-12-20T00:15:41;37.18;31.74;50.76;;
67900;Laerm;54700;51.796;10.956;2023-12-20T00:18:11;39.06;31.90;53.54;;
67900;Laerm;54700;51.796;10.956;2023-12-20T00:20:38;49.82;32.04;66.38;;
67900;Laerm;54700;51.796;10.956;2023-12-20T00:23:05;35.10;30.80;48.96;;
67900;Laerm;54700;51.796;10.956;2023-12-20T00:25:33;37.81;32.53;56.71;;
67900;Laerm;54700;51.796;10.956;2023-12-20T00:28:01;49.65;31.20;64.66;;
67900;Laerm;54700;51.796;10.956;2023-12-20T00:30:28;35.91;30.91;47.21;;
67900;Laerm;54700;51.796;10.956;2023-12-20T00:32:55;34.78;30.21;60.65;;
67900;Laerm;54700;51.796;10.956;2023-12-20T00:35:22;35.40;30.68;45.99;;
67900;Laerm;54700;51.796;10.956;2023-12-20T00:37:49;34.50;29.69;45.60;;
67900;Laerm;54700;51.796;10.956;2023-12-20T00:40:16;53.55;31.41;66.65;;
67900;Laerm;54700;51.796;10.956;2023-12-20T00:42:43;36.00;31.52;43.49;;
67900;Laerm;54700;51.796;10.956;2023-12-20T00:45:11;34.29;30.61;45.28;;
67900;Laerm;54700;51.796;10.956;2023-12-20T00:47:38;35.68;29.66;52.46;;
67900;Laerm;54700;51.796;10.956;2023-12-20T00:50:06;34.55;31.17;48.33;;
67900;Laerm;54700;51.796;10.956;2023-12-20T00:52:34;36.07;30.49;47.48;;
67900;Laerm;54700;51.796;10.956;2023-12-20T00:55:01;35.02;30.53;48.58;;
67900;Laerm;54700;51.796;10.956;2023-12-20T00:57:29;33.34;30.14;47.58;;
67900;Laerm;54700;51.796;10.956;2023-12-20T00:59:56;33.95;30.18;44.53;;
67900;Laerm;54700;51.796;10.956;2023-12-20T01:02:24;34.72;31.49;45.19;;
67900;Laerm;54700;51.796;10.956;2023-12-20T01:04:51;34.24;30.40;47.41;;
67900;Laerm;54700;51.796;10.956;2023-12-20T01:07:18;33.84;29.84;47.98;;
67900;Laerm;54700;51.796;10.956;2023-12-20T01:09:47;49.69;30.62;65.31;;
67900;Laerm;54700;51.796;10.956;2023-12-20T01:12:13;35.02;31.10;49.46;;
67900;Laerm;54700;51.796;10.956;2023-12-20T01:14:40;35.39;30.17;51.52;;
67900;Laerm;54700;51.796;10.956;2023-12-20T01:17:07;33.84;30.19;43.84;;
67900;Laerm;54700;51.796;10.956;2023-12-20T01:19:36;52.19;31.60;68.46;;
67900;Laerm;54700;51.796;10.956;2023-12-20T01:22:03;36.14;30.58;49.41;;
67900;Laerm;54700;51.796;10.956;2023-12-20T01:24:30;33.63;29.40;42.34;;
67900;Laerm;54700;51.796;10.956;2023-12-20T01:26:57;37.07;29.84;57.31;;
67900;Laerm;54700;51.796;10.956;2023-12-20T01:29:27;33.96;29.68;49.91;;
67900;Laerm;54700;51.796;10.956;2023-12-20T01:31:54;50.43;30.29;68.74;;
67900;Laerm;54700;51.796;10.956;2023-12-20T01:34:20;35.49;31.03;51.27;;
67900;Laerm;54700;51.796;10.956;2023-12-20T01:36:48;34.85;30.33;45.16;;
67900;Laerm;54700;51.796;10.956;2023-12-20T01:39:15;55.25;30.30;73.17;;
67900;Laerm;54700;51.796;10.956;2023-12-20T01:41:42;35.41;31.32;49.88;;
67900;Laerm;54700;51.796;10.956;2023-12-20T01:44:09;51.19;30.24;67.50;;
67900;Laerm;54700;51.796;10.956;2023-12-20T01:46:36;52.47;30.70;68.76;;
67900;Laerm;54700;51.796;10.956;2023-12-20T01:49:02;34.46;28.81;53.92;;
67900;Laerm;54700;51.796;10.956;2023-12-20T01:51:30;35.05;30.22;45.60;;
67900;Laerm;54700;51.796;10.956;2023-12-20T01:53:59;52.07;29.92;67.73;;
67900;Laerm;54700;51.796;10.956;2023-12-20T01:56:26;51.03;29.69;67.36;;
67900;Laerm;54700;51.796;10.956;2023-12-20T01:58:55;32.54;29.20;48.08;;
67900;Laerm;54700;51.796;10.956;2023-12-20T02:01:22;32.63;29.15;42.83;;
67900;Laerm;54700;51.796;10.956;2023-12-20T02:03:49;31.87;28.73;38.98;;
67900;Laerm;54700;51.796;10.956;2023-12-20T02:06:18;31.60;29.24;36.40;;
67900;Laerm;54700;51.796;10.956;2023-12-20T02:08:45;52.69;30.15;70.29;;
67900;Laerm;54700;51.796;10.956;2023-12-20T02:11:13;32.24;28.43;40.66;;
67900;Laerm;54700;51.796;10.956;2023-12-20T02:13:40;30.89;28.04;36.08;;
67900;Laerm;54700;51.796;10.956;2023-12-20T02:16:06;31.48;27.93;43.16;;
67900;Laerm;54700;51.796;10.956;2023-12-20T02:18:36;31.16;27.67;38.25;;
67900;Laerm;54700;51.796;10.956;2023-12-20T02:21:04;30.30;27.89;36.56;;
67900;Laerm;54700;51.796;10.956;2023-12-20T02:23:32;36.29;27.78;52.51;;
67900;Laerm;54700;51.796;10.956;2023-12-20T02:25:59;51.32;28.26;68.88;;
67900;Laerm;54700;51.796;10.956;2023-12-20T02:28:26;51.91;29.34;68.25;;
67900;Laerm;54700;51.796;10.956;2023-12-20T02:30:53;33.31;29.56;41.65;;
67900;Laerm;54700;51.796;10.956;2023-12-20T02:33:20;32.94;29.12;41.75;;
67900;Laerm;54700;51.796;10.956;2023-12-20T02:35:46;33.65;28.49;41.03;;
67900;Laerm;54700;51.796;10.956;2023-12-20T02:38:13;34.36;29.25;42.38;;
67900;Laerm;54700;51.796;10.956;2023-12-20T02:40:42;31.96;28.31;39.34;;
67900;Laerm;54700;51.796;10.956;2023-12-20T02:43:08;33.68;29.85;41.68;;
67900;Laerm;54700;51.796;10.956;2023-12-20T02:45:35;52.80;27.97;70.52;;
67900;Laerm;54700;51.796;10.956;2023-12-20T02:48:02;32.32;28.65;41.25;;
67900;Laerm;54700;51.796;10.956;2023-12-20T02:50:29;32.16;29.04;51.63;;
67900;Laerm;54700;51.796;10.956;2023-12-20T02:52:56;32.06;29.08;38.89;;
67900;Laerm;54700;51.796;10.956;2023-12-20T02:55:23;50.00;30.48;65.19;;
67900;Laerm;54700;51.796;10.956;2023-12-20T02:57:51;33.08;29.80;41.81;;
67900;Laerm;54700;51.796;10.956;2023-12-20T03:00:18;34.25;30.15;42.18;;
67900;Laerm;54700;51.796;10.956;2023-12-20T03:02:44;31.34;28.12;36.82;;
67900;Laerm;54700;51.796;10.956;2023-12-20T03:05:11;54.71;28.81;71.19;;
67900;Laerm;54700;51.796;10.956;2023-12-20T03:07:38;34.52;29.36;41.42;;
67900;Laerm;54700;51.796;10.956;2023-12-20T03:10:06;51.89;30.18;68.12;;
67900;Laerm;54700;51.796;10.956;2023-12-20T03:12:33;36.33;29.67;50.49;;
67900;Laerm;54700;51.796;10.956;2023-12-20T03:15:02;46.22;33.76;68.68;;
67900;Laerm;54700;51.796;10.956;2023-12-20T03:17:28;48.35;32.35;63.60;;
67900;Laerm;54700;51.796;10.956;2023-12-20T03:19:55;47.98;31.49;63.98;;
67900;Laerm;54700;51.796;10.956;2023-12-20T03:22:22;54.77;31.22;70.16;;
67900;Laerm;54700;51.796;10.956;2023-12-20T03:24:49;53.25;31.92;68.15;;
67900;Laerm;54700;51.796;10.956;2023-12-20T03:27:15;42.84;31.65;60.81;;
67900;Laerm;54700;51.796;10.956;2023-12-20T03:29:42;52.22;30.77;70.24;;
67900;Laerm;54700;51.796;10.956;2023-12-20T03:32:10;54.38;33.01;68.75;;
67900;Laerm;54700;51.796;10.956;2023-12-20T03:34:37;50.16;31.05;67.27;;
67900;Laerm;54700;51.796;10.956;2023-12-20T03:37:07;48.57;29.71;64.19;;
67900;Laerm;54700;51.796;10.956;2023-12-20T03:39:34;56.44;32.40;71.22;;
67900;Laerm;54700;51.796;10.956;2023-12-20T03:42:00;49.96;29.68;67.97;;
67900;Laerm;54700;51.796;10.956;2023-12-20T03:44:27;34.35;31.20;39.97;;
67900;Laerm;54700;51.796;10.956;2023-12-20T03:46:54;55.55;29.93;71.57;;
67900;Laerm;54700;51.796;10.956;2023-12-20T03:49:22;33.77;30.09;41.34;;
67900;Laerm;54700;51.796;10.956;2023-12-20T03:51:49;57.27;35.89;74.27;;
67900;Laerm;54700;51.796;10.956;2023-12-20T03:54:15;38.87;31.39;55.46;;
67900;Laerm;54700;51.796;10.956;2023-12-20T03:56:42;35.07;29.79;48.09;;
67900;Laerm;54700;51.796;10.956;2023-12-20T03:59:12;53.69;30.04;68.73;;
67900;Laerm;54700;51.796;10.956;2023-12-20T04:01:38;35.72;30.92;45.58;;
67900;Laerm;54700;51.796;10.956;2023-12-20T04:04:09;51.47;32.25;69.84;;
67900;Laerm;54700;51.796;10.956;2023-12-20T04:06:37;57.08;33.20;68.94;;
67900;Laerm;54700;51.796;10.956;2023-12-20T04:09:04;40.45;33.18;55.37;;
67900;Laerm;54700;51.796;10.956;2023-12-20T04:11:31;54.13;32.27;69.41;;
67900;Laerm;54700;51.796;10.956;2023-12-20T04:13:58;58.82;34.76;70.89;;
67900;Laerm;54700;51.796;10.956;2023-12-20T04:16:24;53.83;32.88;67.92;;
67900;Laerm;54700;51.796;10.956;2023-12-20T04:18:51;52.92;32.23;67.16;;
67900;Laerm;54700;51.796;10.956;2023-12-20T04:21:18;49.83;32.15;66.43;;
67900;Laerm;54700;51.796;10.956;2023-12-20T04:23:46;56.54;33.02;69.43;;
67900;Laerm;54700;51.796;10.956;2023-12-20T04:26:13;57.12;34.71;68.41;;
67900;Laerm;54700;51.796;10.956;2023-12-20T04:28:39;57.87;34.84;70.47;;
67900;Laerm;54700;51.796;10.956;2023-12-20T04:31:06;54.91;31.63;68.72;;
67900;Laerm;54700;51.796;10.956;2023-12-20T04:33:33;60.19;33.14;71.40;;
67900;Laerm;54700;51.796;10.956;2023-12-20T04:36:00;59.49;37.31;71.32;;
67900;Laerm;54700;51.796;10.956;2023-12-20T04:38:27;58.57;35.05;70.72;;
67900;Laerm;54700;51.796;10.956;2023-12-20T04:40:55;58.44;36.93;70.88;;
67900;Laerm;54700;51.796;10.956;2023-12-20T04:43:22;59.77;35.85;71.58;;
67900;Laerm;54700;51.796;10.956;2023-12-20T04:45:49;58.53;35.94;76.21;;
67900;Laerm;54700;51.796;10.956;2023-12-20T04:48:16;58.77;34.04;71.23;;
67900;Laerm;54700;51.796;10.956;2023-12-20T04:50:42;58.51;38.49;67.75;;
67900;Laerm;54700;51.796;10.956;2023-12-20T04:53:13;58.90;33.75;70.06;;
67900;Laerm;54700;51.796;10.956;2023-12-20T04:55:40;56.90;31.50;69.02;;
67900;Laerm;54700;51.796;10.956;2023-12-20T04:58:08;53.22;32.58;68.05;;
67900;Laerm;54700;51.796;10.956;2023-12-20T05:00:35;56.69;33.88;69.56;;
67900;Laerm;54700;51.796;10.956;2023-12-20T05:03:03;57.84;33.88;73.14;;
67900;Laerm;54700;51.796;10.956;2023-12-20T05:05:30;60.00;38.04;69.06;;
67900;Laerm;54700;51.796;10.956;2023-12-20T05:07:57;57.76;36.23;68.69;;
67900;Laerm;54700;51.796;10.956;2023-12-20T05:10:27;59.66;38.43;71.80;;
67900;Laerm;54700;51.796;10.956;2023-12-20T05:12:53;59.70;39.40;75.30;;
67900;Laerm;54700;51.796;10.956;2023-12-20T05:15:22;59.68;37.83;69.31;;
67900;Laerm;54700;51.796;10.956;2023-12-20T05:17:48;58.01;37.78;68.93;;
67900;Laerm;54700;51.796;10.956;2023-12-20T05:20:15;61.07;40.22;70.29;;
67900;Laerm;54700;51.796;10.956;2023-12-20T05:22:42;59.44;39.55;74.32;;
67900;Laerm;54700;51.796;10.956;2023-12-20T05:25:10;59.40;39.52;71.29;;
67900;Laerm;54700;51.796;10.956;2023-12-20T05:27:37;60.64;43.18;68.84;;
67900;Laerm;54700;51.796;10.956;2023-12-20T05:30:04;59.87;40.03;70.79;;
67900;Laerm;54700;51.796;10.956;2023-12-20T05:32:33;60.58;39.49;71.32;;
67900;Laerm;54700;51.796;10.956;2023-12-20T05:35:00;63.09;44.53;72.56;;
67900;Laerm;54700;51.796;10.956;2023-12-20T05:37:27;59.73;41.89;69.15;;
67900;Laerm;54700;51.796;10.956;2023-12-20T05:39:54;59.92;40.77;69.53;;
67900;Laerm;54700;51.796;10.956;2023-12-20T05:42:21;61.56;39.77;70.02;;
67900;Laerm;54700;51.796;10.956;2023-12-20T05:44:50;60.81;38.85;72.75;;
67900;Laerm;54700;51.796;10.956;2023-12-20T05:47:17;57.67;38.49;74.65;;
67900;Laerm;54700;51.796;10.956;2023-12-20T05:49:45;60.03;45.75;74.22;;
67900;Laerm;54700;51.796;10.956;2023-12-20T05:52:12;63.28;45.27;75.69;;
67900;Laerm;54700;51.796;10.956;2023-12-20T05:54:39;63.24;45.52;75.76;;
67900;Laerm;54700;51.796;10.956;2023-12-20T05:57:06;63.00;42.38;76.83;;
67900;Laerm;54700;51.796;10.956;2023-12-20T05:59:32;62.49;45.30;72.57;;
67900;Laerm;54700;51.796;10.956;2023-12-20T06:01:59;60.09;40.96;74.92;;
67900;Laerm;54700;51.796;10.956;2023-12-20T06:04:26;59.99;43.17;68.62;;
67900;Laerm;54700;51.796;10.956;2023-12-20T06:06:54;61.52;40.18;72.27;;
67900;Laerm;54700;51.796;10.956;2023-12-20T06:09:21;62.96;47.16;71.87;;
67900;Laerm;54700;51.796;10.956;2023-12-20T06:11:49;62.24;46.99;75.47;;
67900;Laerm;54700;51.796;10.956;2023-12-20T06:14:16;60.95;43.75;70.78;;
67900;Laerm;54700;51.796;10.956;2023-12-20T06:16:43;62.36;44.99;72.80;;
67900;Laerm;54700;51.796;10.956;2023-12-20T06:19:10;60.72;42.88;68.92;;
67900;Laerm;54700;51.796;10.956;2023-12-20T06:21:37;60.04;45.06;68.43;;
67900;Laerm;54700;51.796;10.956;2023-12-20T06:24:06;63.53;49.14;72.55;;
67900;Laerm;54700;51.796;10.956;2023-12-20T06:26:33;63.08;45.53;71.40;;
67900;Laerm;54700;51.796;10.956;2023-12-20T06:28:58;60.51;44.43;70.33;;
67900;Laerm;54700;51.796;10.956;2023-12-20T06:31:25;65.45;52.66;77.82;;
67900;Laerm;54700;51.796;10.956;2023-12-20T06:33:52;62.73;41.69;73.20;;
67900;Laerm;54700;51.796;10.956;2023-12-20T06:36:22;62.10;43.86;74.48;;
67900;Laerm;54700;51.796;10.956;2023-12-20T06:38:50;62.36;49.10;75.21;;
67900;Laerm;54700;51.796;10.956;2023-12-20T06:41:18;63.11;47.48;74.07;;
67900;Laerm;54700;51.796;10.956;2023-12-20T06:43:45;62.96;48.28;72.68;;
67900;Laerm;54700;51.796;10.956;2023-12-20T06:46:12;62.45;46.62;71.88;;
67900;Laerm;54700;51.796;10.956;2023-12-20T06:48:39;63.59;55.39;72.26;;
67900;Laerm;54700;51.796;10.956;2023-12-20T06:51:10;64.07;45.76;76.32;;
67900;Laerm;54700;51.796;10.956;2023-12-20T06:53:37;63.08;51.96;71.73;;
67900;Laerm;54700;51.796;10.956;2023-12-20T06:56:05;65.11;49.79;82.29;;
67900;Laerm;54700;51.796;10.956;2023-12-20T06:58:34;63.46;50.66;74.99;;
67900;Laerm;54700;51.796;10.956;2023-12-20T07:01:04;62.13;45.70;72.78;;
67900;Laerm;54700;51.796;10.956;2023-12-20T07:03:32;64.54;50.59;74.53;;
67900;Laerm;54700;51.796;10.956;2023-12-20T07:05:59;63.98;48.32;76.74;;
67900;Laerm;54700;51.796;10.956;2023-12-20T07:08:28;62.29;43.85;78.90;;
67900;Laerm;54700;51.796;10.956;2023-12-20T07:10:55;64.63;46.37;77.32;;
67900;Laerm;54700;51.796;10.956;2023-12-20T07:13:22;61.68;45.04;70.01;;
67900;Laerm;54700;51.796;10.956;2023-12-20T07:15:51;62.45;49.50;71.98;;
67900;Laerm;54700;51.796;10.956;2023-12-20T07:18:18;60.45;45.06;72.17;;
67900;Laerm;54700;51.796;10.956;2023-12-20T07:20:45;62.51;46.84;71.08;;
67900;Laerm;54700;51.796;10.956;2023-12-20T07:23:14;59.68;45.89;70.14;;
67900;Laerm;54700;51.796;10.956;2023-12-20T07:25:41;64.20;52.45;77.14;;
67900;Laerm;54700;51.796;10.956;2023-12-20T07:28:08;63.99;47.34;79.96;;
67900;Laerm;54700;51.796;10.956;2023-12-20T07:30:35;60.98;47.22;70.35;;
67900;Laerm;54700;51.796;10.956;2023-12-20T07:33:04;61.72;45.23;73.85;;
67900;Laerm;54700;51.796;10.956;2023-12-20T07:35:33;61.27;50.17;71.97;;
67900;Laerm;54700;51.796;10.956;2023-12-20T07:38:01;62.30;51.39;70.27;;
67900;Laerm;54700;51.796;10.956;2023-12-20T07:40:27;61.69;47.63;70.05;;
67900;Laerm;54700;51.796;10.956;2023-12-20T07:42:55;60.24;45.20;69.21;;
67900;Laerm;54700;51.796;10.956;2023-12-20T07:45:22;62.22;47.66;70.27;;
67900;Laerm;54700;51.796;10.956;2023-12-20T07:47:48;63.96;46.05;72.04;;
67900;Laerm;54700;51.796;10.956;2023-12-20T07:50:17;60.56;40.30;69.10;;
67900;Laerm;54700;51.796;10.956;2023-12-20T07:52:44;61.61;47.55;70.21;;
67900;Laerm;54700;51.796;10.956;2023-12-20T07:55:11;61.14;40.36;71.31;;
67900;Laerm;54700;51.796;10.956;2023-12-20T07:57:38;62.96;40.54;73.27;;
67900;Laerm;54700;51.796;10.956;2023-12-20T08:00:06;62.88;47.18;75.98;;
67900;Laerm;54700;51.796;10.956;2023-12-20T08:02:33;62.55;45.86;73.43;;
67900;Laerm;54700;51.796;10.956;2023-12-20T08:05:03;64.22;43.56;73.54;;
67900;Laerm;54700;51.796;10.956;2023-12-20T08:07:34;61.16;46.72;69.63;;
67900;Laerm;54700;51.796;10.956;2023-12-20T08:10:02;62.90;39.58;72.14;;
67900;Laerm;54700;51.796;10.956;2023-12-20T08:12:29;61.90;48.31;69.54;;
67900;Laerm;54700;51.796;10.956;2023-12-20T08:14:57;63.49;49.12;73.03;;
67900;Laerm;54700;51.796;10.956;2023-12-20T08:17:25;63.54;41.63;75.56;;
67900;Laerm;54700;51.796;10.956;2023-12-20T08:19:52;63.76;46.60;73.62;;
67900;Laerm;54700;51.796;10.956;2023-12-20T08:22:20;63.34;45.94;73.33;;
67900;Laerm;54700;51.796;10.956;2023-12-20T08:24:49;62.76;42.15;72.74;;
67900;Laerm;54700;51.796;10.956;2023-12-20T08:27:16;62.23;49.58;70.44;;
67900;Laerm;54700;51.796;10.956;2023-12-20T08:29:43;65.78;43.66;78.62;;
67900;Laerm;54700;51.796;10.956;2023-12-20T08:32:11;64.00;50.07;75.91;;
67900;Laerm;54700;51.796;10.956;2023-12-20T08:34:40;63.09;48.03;71.43;;
67900;Laerm;54700;51.796;10.956;2023-12-20T08:37:08;62.44;46.84;74.41;;
67900;Laerm;54700;51.796;10.956;2023-12-20T08:39:36;64.15;51.64;74.14;;
67900;Laerm;54700;51.796;10.956;2023-12-20T08:42:12;62.12;48.94;74.27;;
67900;Laerm;54700;51.796;10.956;2023-12-20T08:44:39;64.45;50.63;74.00;;
67900;Laerm;54700;51.796;10.956;2023-12-20T08:47:07;63.11;48.28;71.26;;
67900;Laerm;54700;51.796;10.956;2023-12-20T08:49:48;61.50;50.35;72.60;;
67900;Laerm;54700;51.796;10.956;2023-12-20T08:52:18;62.15;48.44;72.16;;
67900;Laerm;54700;51.796;10.956;2023-12-20T08:54:50;63.51;48.05;74.78;;
67900;Laerm;54700;51.796;10.956;2023-12-20T08:57:20;65.08;51.64;76.69;;
67900;Laerm;54700;51.796;10.956;2023-12-20T08:59:54;63.78;49.36;75.99;;
67900;Laerm;54700;51.796;10.956;2023-12-20T09:02:25;64.67;48.11;77.32;;
67900;Laerm;54700;51.796;10.956;2023-12-20T09:04:54;63.32;53.64;71.02;;
67900;Laerm;54700;51.796;10.956;2023-12-20T09:07:22;61.56;46.55;69.11;;
67900;Laerm;54700;51.796;10.956;2023-12-20T09:09:49;64.54;53.98;71.53;;
67900;Laerm;54700;51.796;10.956;2023-12-20T09:12:17;64.24;51.38;75.37;;
67900;Laerm;54700;51.796;10.956;2023-12-20T09:14:47;64.58;52.51;74.08;;
67900;Laerm;54700;51.796;10.956;2023-12-20T09:17:14;62.91;49.60;70.14;;
67900;Laerm;54700;51.796;10.956;2023-12-20T09:19:42;61.43;45.22;70.22;;
67900;Laerm;54700;51.796;10.956;2023-12-20T09:22:09;60.28;44.67;75.85;;
67900;Laerm;54700;51.796;10.956;2023-12-20T09:24:39;62.52;47.49;68.62;;
67900;Laerm;54700;51.796;10.956;2023-12-20T09:27:07;64.64;51.18;75.74;;
67900;Laerm;54700;51.796;10.956;2023-12-20T09:29:36;64.05;51.51;72.51;;
67900;Laerm;54700;51.796;10.956;2023-12-20T09:32:05;61.89;45.46;72.32;;
67900;Laerm;54700;51.796;10.956;2023-12-20T09:34:35;64.31;49.15;73.43;;
67900;Laerm;54700;51.796;10.956;2023-12-20T09:37:08;62.85;44.25;71.25;;
67900;Laerm;54700;51.796;10.956;2023-12-20T09:39:35;63.22;45.64;72.28;;
67900;Laerm;54700;51.796;10.956;2023-12-20T09:42:05;63.90;49.81;73.45;;
67900;Laerm;54700;51.796;10.956;2023-12-20T09:44:39;63.42;50.06;73.20;;
67900;Laerm;54700;51.796;10.956;2023-12-20T09:47:10;64.08;51.01;71.89;;
67900;Laerm;54700;51.796;10.956;2023-12-20T09:49:37;62.18;45.84;69.48;;
67900;Laerm;54700;51.796;10.956;2023-12-20T09:52:10;65.49;49.57;74.33;;
67900;Laerm;54700;51.796;10.956;2023-12-20T09:54:38;65.10;52.50;73.92;;
67900;Laerm;54700;51.796;10.956;2023-12-20T09:57:06;81.02;51.54;99.55;;
67900;Laerm;54700;51.796;10.956;2023-12-20T09:59:33;63.62;48.58;71.93;;
67900;Laerm;54700;51.796;10.956;2023-12-20T10:02:01;64.82;54.34;72.71;;
67900;Laerm;54700;51.796;10.956;2023-12-20T10:04:32;63.69;50.41;74.36;;
67900;Laerm;54700;51.796;10.956;2023-12-20T10:07:02;64.68;48.64;72.72;;
67900;Laerm;54700;51.796;10.956;2023-12-20T10:09:33;62.40;51.01;69.46;;
67900;Laerm;54700;51.796;10.956;2023-12-20T10:12:01;63.28;51.48;72.39;;
67900;Laerm;54700;51.796;10.956;2023-12-20T10:14:28;62.76;46.94;70.18;;
67900;Laerm;54700;51.796;10.956;2023-12-20T10:17:02;60.78;48.57;70.43;;
67900;Laerm;54700;51.796;10.956;2023-12-20T10:19:30;64.90;51.24;78.93;;
67900;Laerm;54700;51.796;10.956;2023-12-20T10:22:01;62.99;51.21;75.62;;
67900;Laerm;54700;51.796;10.956;2023-12-20T10:24:29;66.15;54.45;78.67;;
67900;Laerm;54700;51.796;10.956;2023-12-20T10:27:03;63.14;49.02;71.16;;
67900;Laerm;54700;51.796;10.956;2023-12-20T10:29:37;64.11;53.96;80.50;;
67900;Laerm;54700;51.796;10.956;2023-12-20T10:32:22;63.68;50.13;73.14;;
67900;Laerm;54700;51.796;10.956;2023-12-20T10:34:50;65.29;53.70;75.86;;
67900;Laerm;54700;51.796;10.956;2023-12-20T10:37:18;65.29;51.08;75.48;;
67900;Laerm;54700;51.796;10.956;2023-12-20T10:39:49;62.64;48.87;70.43;;
67900;Laerm;54700;51.796;10.956;2023-12-20T10:42:18;63.51;54.14;74.68;;
67900;Laerm;54700;51.796;10.956;2023-12-20T10:44:47;63.34;49.79;70.86;;
67900;Laerm;54700;51.796;10.956;2023-12-20T10:47:15;63.91;49.85;73.35;;
67900;Laerm;54700;51.796;10.956;2023-12-20T10:49:43;62.99;47.12;75.88;;
67900;Laerm;54700;51.796;10.956;2023-12-20T10:52:12;64.34;48.65;72.69;;
67900;Laerm;54700;51.796;10.956;2023-12-20T10:54:42;64.53;49.86;76.96;;
67900;Laerm;54700;51.796;10.956;2023-12-20T10:57:09;61.31;47.33;70.48;;
67900;Laerm;54700;51.796;10.956;2023-12-20T10:59:39;63.34;52.36;76.29;;
67900;Laerm;54700;51.796;10.956;2023-12-20T11:02:11;64.07;51.69;75.21;;
67900;Laerm;54700;51.796;10.956;2023-12-20T11:04:47;64.77;51.49;73.42;;
67900;Laerm;54700;51.796;10.956;2023-12-20T11:07:23;61.88;48.69;69.94;;
67900;Laerm;54700;51.796;10.956;2023-12-20T11:09:58;63.68;45.88;73.50;;
67900;Laerm;54700;51.796;10.956;2023-12-20T11:12:35;62.14;50.56;71.65;;
67900;Laerm;54700;51.796;10.956;2023-12-20T11:15:03;63.04;50.55;72.48;;
67900;Laerm;54700;51.796;10.956;2023-12-20T11:17:31;64.28;48.32;74.30;;
67900;Laerm;54700;51.796;10.956;2023-12-20T11:20:07;64.28;46.39;72.65;;
67900;Laerm;54700;51.796;10.956;2023-12-20T11:22:36;63.25;46.99;71.89;;
67900;Laerm;54700;51.796;10.956;2023-12-20T11:25:07;62.15;46.08;73.48;;
67900;Laerm;54700;51.796;10.956;2023-12-20T11:27:35;63.80;50.13;73.32;;
67900;Laerm;54700;51.796;10.956;2023-12-20T11:30:05;63.09;45.00;71.07;;
67900;Laerm;54700;51.796;10.956;2023-12-20T11:32:34;61.91;47.39;69.70;;
67900;Laerm;54700;51.796;10.956;2023-12-20T11:35:17;63.96;45.57;75.72;;
67900;Laerm;54700;51.796;10.956;2023-12-20T11:37:45;69.15;58.38;80.16;;
67900;Laerm;54700;51.796;10.956;2023-12-20T11:40:16;61.31;48.52;75.33;;
67900;Laerm;54700;51.796;10.956;2023-12-20T11:42:45;63.94;49.45;73.43;;
67900;Laerm;54700;51.796;10.956;2023-12-20T11:45:14;63.36;50.86;73.55;;
67900;Laerm;54700;51.796;10.956;2023-12-20T11:47:42;64.31;48.26;74.18;;
67900;Laerm;54700;51.796;10.956;2023-12-20T11:50:10;64.64;53.61;72.86;;
67900;Laerm;54700;51.796;10.956;2023-12-20T11:52:37;63.45;50.12;73.38;;
67900;Laerm;54700;51.796;10.956;2023-12-20T11:55:05;63.76;52.07;74.61;;
67900;Laerm;54700;51.796;10.956;2023-12-20T11:57:43;63.82;49.85;71.78;;
67900;Laerm;54700;51.796;10.956;2023-12-20T12:00:12;68.27;55.36;79.23;;
67900;Laerm;54700;51.796;10.956;2023-12-20T12:02:40;63.92;50.67;74.18;;
67900;Laerm;54700;51.796;10.956;2023-12-20T12:05:07;63.71;50.41;71.31;;
67900;Laerm;54700;51.796;10.956;2023-12-20T12:07:37;63.88;48.66;71.60;;
67900;Laerm;54700;51.796;10.956;2023-12-20T12:10:05;64.54;49.06;83.81;;
67900;Laerm;54700;51.796;10.956;2023-12-20T12:12:34;65.49;47.88;78.95;;
67900;Laerm;54700;51.796;10.956;2023-12-20T12:15:02;63.43;51.86;69.89;;
67900;Laerm;54700;51.796;10.956;2023-12-20T12:17:29;64.50;47.79;79.11;;
67900;Laerm;54700;51.796;10.956;2023-12-20T12:20:02;62.65;42.65;72.47;;
67900;Laerm;54700;51.796;10.956;2023-12-20T12:22:30;62.70;46.62;70.73;;
67900;Laerm;54700;51.796;10.956;2023-12-20T12:24:59;64.03;45.75;72.53;;
67900;Laerm;54700;51.796;10.956;2023-12-20T12:27:27;62.97;49.85;70.36;;
67900;Laerm;54700;51.796;10.956;2023-12-20T12:30:03;63.21;50.93;72.39;;
67900;Laerm;54700;51.796;10.956;2023-12-20T12:32:31;63.76;52.15;75.01;;
67900;Laerm;54700;51.796;10.956;2023-12-20T12:34:58;62.79;52.24;71.19;;
67900;Laerm;54700;51.796;10.956;2023-12-20T12:37:25;63.74;49.15;72.55;;
67900;Laerm;54700;51.796;10.956;2023-12-20T12:39:53;63.28;44.43;71.44;;
67900;Laerm;54700;51.796;10.956;2023-12-20T12:42:20;63.88;50.26;76.18;;
67900;Laerm;54700;51.796;10.956;2023-12-20T12:44:47;63.39;49.10;72.89;;
67900;Laerm;54700;51.796;10.956;2023-12-20T12:47:15;65.63;53.31;74.67;;
67900;Laerm;54700;51.796;10.956;2023-12-20T12:49:42;65.42;46.45;72.78;;
67900;Laerm;54700;51.796;10.956;2023-12-20T12:52:09;64.63;45.77;71.52;;
67900;Laerm;54700;51.796;10.956;2023-12-20T12:54:36;64.24;41.84;72.66;;
67900;Laerm;54700;51.796;10.956;2023-12-20T12:57:03;63.60;46.07;71.43;;
67900;Laerm;54700;51.796;10.956;2023-12-20T12:59:30;65.59;52.58;76.95;;
67900;Laerm;54700;51.796;10.956;2023-12-20T13:01:57;65.43;50.77;76.50;;
67900;Laerm;54700;51.796;10.956;2023-12-20T13:04:27;63.91;48.15;70.69;;
67900;Laerm;54700;51.796;10.956;2023-12-20T13:06:54;63.64;47.59;71.69;;
67900;Laerm;54700;51.796;10.956;2023-12-20T13:09:22;63.99;46.17;74.49;;
67900;Laerm;54700;51.796;10.956;2023-12-20T13:11:49;66.42;51.34;72.26;;
67900;Laerm;54700;51.796;10.956;2023-12-20T13:14:16;66.17;48.73;78.74;;
67900;Laerm;54700;51.796;10.956;2023-12-20T13:16:43;62.51;44.16;72.44;;
67900;Laerm;54700;51.796;10.956;2023-12-20T13:19:11;67.57;48.18;78.03;;
67900;Laerm;54700;51.796;10.956;2023-12-20T13:21:39;63.99;41.97;73.04;;
67900;Laerm;54700;51.796;10.956;2023-12-20T13:24:06;66.63;44.68;77.25;;
67900;Laerm;54700;51.796;10.956;2023-12-20T13:26:33;65.10;49.56;71.90;;
67900;Laerm;54700;51.796;10.956;2023-12-20T13:29:00;65.99;49.70;75.30;;
67900;Laerm;54700;51.796;10.956;2023-12-20T13:31:27;64.82;49.88;73.25;;
67900;Laerm;54700;51.796;10.956;2023-12-20T13:33:54;65.26;47.90;72.23;;
67900;Laerm;54700;51.796;10.956;2023-12-20T13:36:21;64.21;47.10;75.94;;